Tiempo atmosférico en la estación meteorológica de Tudela Ii, Navarra (300 m.)



Fecha
DESCASC
Temp. máxima en grados centígrados (hora)
DESCASC
Temp. mínima en grados centígrados (hora)
DESCASC
Temp. media en grados centígrados
DESCASC
Racha de viento máxima en m/sg (hora)
DESCASC
Velocidad máxima media en intervalos de 10 minutos(hora)
DESCASC
Precipitaciones diarias en mm
DESCASC
Precipitaciones de 00:00 a 06:00 en mm
DESCASC
Precipitaciones de 06:00 a 12:00 en mm
DESCASC
Precipitaciones de 12:00 a 18:00 en mm
DESCASC
Precipitaciones de 18:00 a 24:00 en mm
DESCASC

Gráficas

Temp. máximas Temp. mínimas Temp. medias Precipitaciones Rachas de viento máximas Velocidades máximas media en intervalos de 10 minutos

Datos horarios

Fecha y hora oficial Temperatura (ºC) Velocidad del viento (km/h) Dirección del viento Racha (km/h) Dirección de racha Precipitación (mm) Presión (hPa) Tendencia (hPa) Humedad (%)
2018-12-09 23:00:00 9.9 13 Oeste 22 Oeste 0 -- -- 74
2018-12-09 22:00:00 10.8 9 Oeste 26 Noroeste 0 -- -- 70
2018-12-09 21:00:00 11.2 11 Oeste 26 Noroeste 0 -- -- 69
2018-12-09 20:00:00 11.3 9 Noroeste 19 Noroeste 0 -- -- 70
2018-12-09 19:00:00 11.8 6 Noroeste 23 Norte 0 -- -- 66
2018-12-09 18:00:00 12.4 8 Norte 26 Noroeste 0 -- -- 65
2018-12-09 17:00:00 14 12 Norte 27 Norte 0 -- -- 62
2018-12-09 16:00:00 15.1 11 Norte 31 Noroeste 0 -- -- 60
2018-12-09 15:00:00 15.8 9 Norte 31 Norte 0 -- -- 58
2018-12-09 14:00:00 15.4 12 Noroeste 35 Norte 0 -- -- 59
2018-12-09 13:00:00 14.7 14 Norte 27 Noroeste 0 -- -- 61
2018-12-09 12:00:00 13.9 14 Norte 30 Noroeste 0 -- -- 63
2018-12-09 11:00:00 12.3 8 Norte 26 Noroeste 0 -- -- 69
2018-12-09 10:00:00 10.3 8 Noroeste 22 Noroeste 0 -- -- 72
2018-12-09 09:00:00 7.7 3 Norte 15 Oeste 0 -- -- 79
2018-12-09 08:00:00 8 8 Oeste 22 Noroeste 0 -- -- 78
2018-12-09 07:00:00 8.6 7 Noroeste 29 Norte 0 -- -- 76
2018-12-09 06:00:00 6.9 4 Noroeste 19 Noroeste 0 -- -- 84
2018-12-09 05:00:00 5.8 4 Oeste 9 Oeste 0 -- -- 85
2018-12-09 04:00:00 6.3 4 Oeste 12 Noroeste 0 -- -- 84
2018-12-09 03:00:00 7.3 5 Oeste 15 Noroeste 0 -- -- 79
2018-12-09 02:00:00 5.7 5 Oeste 13 Oeste 0 -- -- 85
2018-12-09 01:00:00 6.4 3 Oeste 8 Oeste 0 -- -- 84
2018-12-09 00:00:00 6.8 3 Oeste 15 Oeste 0 -- -- 81
2018-12-08 23:00:00 7.8 4 Noroeste 12 Oeste 0 -- -- 80
2018-12-08 22:00:00 7.1 6 Oeste 12 Oeste 0 -- -- 81
2018-12-08 21:00:00 7.9 3 Noroeste 10 Oeste 0 -- -- 78
2018-12-08 20:00:00 8.3 3 Sudoeste 11 Oeste 0 -- -- 75
2018-12-08 19:00:00 10.1 4 Oeste 9 Oeste 0 -- -- 68
2018-12-08 18:00:00 11.6 3 Noroeste 11 Norte 0 -- -- 62
2018-12-08 17:00:00 13.3 4 Norte 14 Norte 0 -- -- 53
2018-12-08 16:00:00 14.2 7 Norte 24 Norte 0 -- -- 48
2018-12-08 15:00:00 14.2 11 Norte 28 Norte 0 -- -- 49
2018-12-08 14:00:00 14 16 Norte 29 Norte 0 -- -- 49
2018-12-08 13:00:00 13.5 11 Norte 26 Noroeste 0 -- -- 54
2018-12-08 12:00:00 12.6 9 Noroeste 21 Norte 0 -- -- 58
2018-12-08 11:00:00 11.4 6 Noroeste 21 Noroeste 0 -- -- 67
2018-12-08 10:00:00 9.7 5 Noroeste 15 Oeste 0 -- -- 73
2018-12-08 09:00:00 9 5 Noroeste 19 Noroeste 0 -- -- 74
2018-12-08 08:00:00 9 6 Noroeste 18 Noroeste 0 -- -- 75
2018-12-08 07:00:00 9.8 6 Noroeste 23 Noroeste 0 -- -- 78
2018-12-08 06:00:00 10.2 9 Norte 21 Norte 0 -- -- 78
2018-12-08 05:00:00 10 4 Noroeste 19 Oeste 0 -- -- 85
2018-12-08 04:00:00 10.2 6 Noroeste 21 Nordeste 0 -- -- 84
2018-12-08 03:00:00 10.3 8 Norte 18 Norte 0 -- -- 82
2018-12-08 02:00:00 10.6 7 Norte 18 Oeste 0 -- -- 83
2018-12-08 01:00:00 11 8 Norte 32 Norte 0 -- -- 82
2018-12-08 00:00:00 11.3 9 Noroeste 27 Oeste 0 -- -- 81
2018-12-07 23:00:00 11.8 10 Noroeste 29 Norte 0 -- -- 77
2018-12-07 22:00:00 12.1 10 Noroeste 28 Norte 0 -- -- 75
2018-12-07 21:00:00 11.3 14 Norte 24 Norte 0 -- -- 76
2018-12-07 20:00:00 11.5 6 Noroeste 21 Norte 0 -- -- 74
2018-12-07 19:00:00 11.6 6 Noroeste 19 Noroeste 0 -- -- 73
2018-12-07 18:00:00 12.3 6 Noroeste 22 Norte 0 -- -- 71
2018-12-07 17:00:00 13.4 4 Noroeste 16 Norte 0 -- -- 68
2018-12-07 16:00:00 14.1 5 Noroeste 18 Norte 0 -- -- 63
2018-12-07 15:00:00 13.1 7 Norte 16 Norte 0 -- -- 66
2018-12-07 14:00:00 12.1 7 Norte 11 Nordeste 0 -- -- 66
2018-12-07 13:00:00 11 3 Este 10 Nordeste 0 -- -- 68
2018-12-07 12:00:00 9.4 6 Nordeste 10 Nordeste 0 -- -- 78
2018-12-07 11:00:00 8.7 2 Sudeste 6 Oeste 0 -- -- 77
2018-12-07 10:00:00 4.9 2 Norte 7 Oeste 0 -- -- 90
2018-12-07 09:00:00 2.6 0 Calma 3 Sudoeste 0 -- -- 97
2018-12-07 08:00:00 2.8 0 Calma 4 Oeste 0 -- -- 96
2018-12-07 07:00:00 3.3 0 Calma 5 Nordeste 0 -- -- 95
2018-12-07 06:00:00 3.9 0 Calma 5 Sudoeste 0 -- -- 94
2018-12-07 05:00:00 4.6 3 Sudoeste 5 Sur 0 -- -- 94
2018-12-07 04:00:00 5.3 3 Sudoeste 14 Noroeste 0 -- -- 90
2018-12-07 03:00:00 6.6 4 Noroeste 15 Oeste 0 -- -- 88
2018-12-07 02:00:00 7 4 Noroeste 13 Oeste 0 -- -- 87
2018-12-07 01:00:00 7.7 5 Oeste 16 Nordeste 0 -- -- 85
2018-12-07 00:00:00 9 5 Noroeste 23 Noroeste 0 -- -- 80
2018-12-06 23:00:00 9.6 7 Noroeste 27 Noroeste 0 -- -- 79
2018-12-06 22:00:00 10.1 12 Norte 24 Norte 0 -- -- 78
2018-12-06 21:00:00 10.8 6 Norte 26 Norte 0 -- -- 77
2018-12-06 20:00:00 11.9 10 Norte 24 Nordeste 0 -- -- 74
2018-12-06 19:00:00 12.7 13 Norte 33 Norte 0 -- -- 72
2018-12-06 18:00:00 12.9 8 Noroeste 23 Norte 0 -- -- 74
2018-12-06 17:00:00 14.2 7 Noroeste 24 Noroeste 0 -- -- 70
2018-12-06 16:00:00 15.4 9 Noroeste 28 Norte 0 -- -- 67
2018-12-06 15:00:00 15.5 11 Norte 26 Norte 0 -- -- 65
2018-12-06 14:00:00 15.6 7 Noroeste 25 Noroeste 0 -- -- 67
2018-12-06 13:00:00 14.8 10 Norte 29 Noroeste 0 -- -- 72
2018-12-06 12:00:00 13.9 10 Norte 28 Noroeste 0 -- -- 75
2018-12-06 11:00:00 12.6 9 Noroeste 29 Noroeste 0 -- -- 81
2018-12-06 10:00:00 10.9 7 Noroeste 23 Noroeste 0 -- -- 87
2018-12-06 09:00:00 7.2 7 Noroeste 20 Oeste 0 -- -- 100
2018-12-06 08:00:00 5.1 5 Oeste 15 Noroeste 0 -- -- 100
2018-12-06 07:00:00 4.8 2 Noroeste 6 Noroeste 0 -- -- 100
2018-12-06 06:00:00 4.8 2 Oeste 8 Oeste 0 -- -- 99
2018-12-06 05:00:00 5.2 2 Noroeste 4 Norte 0 -- -- 100
2018-12-06 04:00:00 5.9 0 Calma 7 Oeste 0 -- -- 99
2018-12-06 03:00:00 7.1 3 Oeste 8 Oeste 0 -- -- 100
2018-12-06 02:00:00 7.6 2 Oeste 8 Oeste 0 -- -- 99
2018-12-06 01:00:00 8.3 3 Oeste 10 Noroeste 0 -- -- 98
2018-12-06 00:00:00 9 5 Noroeste 10 Noroeste 0 -- -- 98
2018-12-05 23:00:00 9.4 4 Noroeste 12 Norte 0 -- -- 97
2018-12-05 22:00:00 9.6 4 Norte 12 Noroeste 0 -- -- 96
2018-12-05 21:00:00 9.8 3 Noroeste 12 Noroeste 0 -- -- 96
2018-12-05 20:00:00 9.9 7 Norte 17 Norte 0 -- -- 95
2018-12-05 19:00:00 10.1 5 Norte 12 Norte 0 -- -- 95
2018-12-05 18:00:00 10.1 2 Nordeste 11 Noroeste 0 -- -- 96
2018-12-05 17:00:00 10 3 Noroeste 10 Noroeste 0 -- -- 96
2018-12-05 16:00:00 10.2 3 Nordeste 7 Nordeste 0 -- -- 97
2018-12-05 15:00:00 10 4 Noroeste 10 Norte 0 -- -- 98
2018-12-05 14:00:00 9.5 3 Oeste 8 Oeste 0 -- -- 100
2018-12-05 13:00:00 9.4 3 Noroeste 4 Oeste 0 -- -- 100
2018-12-05 12:00:00 8.9 0 Calma 4 Sudeste 0 -- -- 100
2018-12-05 11:00:00 8.1 2 Sur 5 Sur 0 -- -- 100
2018-12-05 10:00:00 7.9 2 Sudeste 5 Sudeste 0.2 -- -- 100
2018-12-05 09:00:00 7.6 0 Calma 4 Sur 0 -- -- 100
2018-12-05 08:00:00 7.3 2 Sur 5 Sur 0 -- -- 100
2018-12-05 07:00:00 7.2 2 Nordeste 7 Nordeste 0 -- -- 100
2018-12-05 06:00:00 7.1 4 Norte 8 Nordeste 0 -- -- 100
2018-12-05 05:00:00 7 0 Calma 3 Sudoeste 0 -- -- 100
2018-12-05 04:00:00 6.9 2 Sudoeste 4 Sur 0 -- -- 100
2018-12-05 03:00:00 6.5 0 Calma 4 Norte 0 -- -- 99
2018-12-05 02:00:00 7 0 Calma 6 Oeste 0 -- -- 99
2018-12-05 01:00:00 7.1 2 Norte 4 Nordeste 0 -- -- 98
2018-12-05 00:00:00 7.6 2 Noroeste 4 Noroeste 0 -- -- 97
2018-12-04 23:00:00 8.2 0 Calma 4 Noroeste 0 -- -- 97
2018-12-04 22:00:00 8.8 0 Calma 5 Noroeste 0 -- -- 96
2018-12-04 21:00:00 9.7 2 Noroeste 9 Oeste 0 -- -- 94
2018-12-04 20:00:00 10.6 2 Oeste 6 Oeste 0 -- -- 93
2018-12-04 19:00:00 11.8 0 Calma 4 Noroeste 0 -- -- 91
2018-12-04 18:00:00 13.1 0 Calma 3 Nordeste 0 -- -- 87
2018-12-04 17:00:00 15.6 3 Nordeste 5 Nordeste 0 -- -- 78
2018-12-04 16:00:00 16.2 0 Calma 8 Nordeste 0 -- -- 73
2018-12-04 15:00:00 15.3 5 Nordeste 9 Norte 0 -- -- 76
2018-12-04 14:00:00 14.2 4 Nordeste 9 Nordeste 0 -- -- 80
2018-12-04 13:00:00 12.4 5 Nordeste 8 Nordeste 0 -- -- 87
2018-12-04 12:00:00 10.6 0 Calma 5 Nordeste 0 -- -- 92
2018-12-04 11:00:00 8.2 0 Calma 6 Nordeste 0 -- -- 95
2018-12-04 10:00:00 6.9 2 Nordeste 4 Nordeste 0 -- -- 97
2018-12-04 09:00:00 5.6 2 Norte 4 Norte 0 -- -- 98
2018-12-04 08:00:00 5.8 2 Norte 4 Norte 0 -- -- 98
2018-12-04 07:00:00 5.9 2 Norte 4 Nordeste 0 -- -- 98
2018-12-04 06:00:00 6.2 0 Calma 3 Noroeste 0 -- -- 98
2018-12-04 05:00:00 5.7 0 Calma 5 Oeste 0 -- -- 98
2018-12-04 04:00:00 6.3 0 Calma 3 Sudoeste 0 -- -- 97
2018-12-04 03:00:00 6.7 0 Calma 6 Oeste 0 -- -- 96
2018-12-04 02:00:00 7.5 3 Noroeste 6 Sudoeste 0 -- -- 97
2018-12-04 01:00:00 7.6 3 Oeste 9 Oeste 0 -- -- 96
2018-12-04 00:00:00 7.8 2 Noroeste 6 Oeste 0 -- -- 96
2018-12-03 23:00:00 8.2 0 Calma 7 Sudoeste 0 -- -- 95
2018-12-03 22:00:00 9 5 Sudoeste 9 Oeste 0 -- -- 95
2018-12-03 21:00:00 9.4 2 Oeste 6 Oeste 0 -- -- 93
2018-12-03 20:00:00 10.1 0 Calma 8 Sudoeste 0 -- -- 91
2018-12-03 19:00:00 11.1 4 Oeste 8 Oeste 0 -- -- 90
2018-12-03 18:00:00 11.6 3 Oeste 4 Oeste 0 -- -- 87
2018-12-03 17:00:00 13.1 0 Calma 3 Nordeste 0 -- -- 83
2018-12-03 16:00:00 13.5 3 Sur 6 Este 0 -- -- 77
2018-12-03 15:00:00 13.3 2 Norte 11 Nordeste 0 -- -- 78
2018-12-03 14:00:00 13 7 Norte 17 Norte 0 -- -- 77
2018-12-03 13:00:00 12.1 3 Nordeste 5 Sudeste 0 -- -- 78
2018-12-03 12:00:00 11.5 4 Sur 7 Sur 0 -- -- 80
2018-12-03 11:00:00 8 0 Calma 5 Norte 0 -- -- 90
2018-12-03 10:00:00 6.2 2 Nordeste 4 Nordeste 0 -- -- 93
2018-12-03 09:00:00 4.1 3 Noroeste 5 Norte 0 -- -- 97
2018-12-03 08:00:00 3.9 0 Calma 6 Noroeste 0 -- -- 97
2018-12-03 07:00:00 4.3 0 Calma 4 Noroeste 0 -- -- 98
2018-12-03 06:00:00 4.5 3 Noroeste 9 Sudoeste 0 -- -- 98
2018-12-03 05:00:00 4.4 0 Calma 6 Sur 0 -- -- 96
2018-12-03 04:00:00 5.1 0 Calma 9 Norte 0 -- -- 97
2018-12-03 03:00:00 5.2 0 Calma 4 Sur 0 -- -- 96
2018-12-03 02:00:00 5.7 0 Calma 7 Sur 0 -- -- 95
2018-12-03 01:00:00 6.1 2 Norte 7 Sur 0 -- -- 94
2018-12-03 00:00:00 6.8 3 Oeste 6 Norte 0 -- -- 94
2018-12-02 23:00:00 7 0 Calma 9 Oeste 0 -- -- 93
2018-12-02 22:00:00 7.8 0 Calma 8 Noroeste 0 -- -- 91
2018-12-02 21:00:00 8.3 3 Noroeste 6 Noroeste 0 -- -- 90
2018-12-02 20:00:00 9.8 2 Noroeste 8 Oeste 0 -- -- 87
2018-12-02 19:00:00 10.8 3 Oeste 7 Oeste 0 -- -- 85
2018-12-02 18:00:00 11.9 2 Oeste 4 Noroeste 0 -- -- 81
2018-12-02 17:00:00 13 2 Noroeste 7 Noroeste 0 -- -- 76
2018-12-02 16:00:00 13.6 5 Norte 9 Nordeste 0 -- -- 72
2018-12-02 15:00:00 13.8 2 Este 8 Sudeste 0 -- -- 71
2018-12-02 14:00:00 13.2 4 Sudeste 12 Este 0 -- -- 72
2018-12-02 13:00:00 12.7 6 Nordeste 14 Sudeste 0 -- -- 73
2018-12-02 12:00:00 12.1 5 Este 10 Sudeste 0 -- -- 74
2018-12-02 11:00:00 10.2 0 Calma 5 Norte 0 -- -- 81
2018-12-02 10:00:00 8.2 2 Sudeste 5 Sur 0 -- -- 88
2018-12-02 09:00:00 5.7 2 Sudoeste 7 Nordeste 0 -- -- 95
2018-12-02 08:00:00 5.4 2 Noroeste 4 Oeste 0 -- -- 96
2018-12-02 07:00:00 5.5 0 Calma 6 Oeste 0 -- -- 96
2018-12-02 06:00:00 5.6 2 Sudeste 8 Noroeste 0 -- -- 96
2018-12-02 05:00:00 5.8 3 Oeste 5 Oeste 0 -- -- 95
2018-12-02 04:00:00 6.4 3 Noroeste 5 Noroeste 0 -- -- 93
2018-12-02 03:00:00 7.4 2 Sudoeste 6 Sudoeste 0 -- -- 90
2018-12-02 02:00:00 8.1 2 Sur 5 Sudeste 0 -- -- 88
2018-12-02 01:00:00 8.1 4 Sur 7 Sudeste 0 -- -- 88
2018-12-02 00:00:00 8.4 2 Sudeste 5 Sudeste 0 -- -- 86
2018-12-01 23:00:00 8.7 4 Sur 8 Sur 0 -- -- 86
2018-12-01 22:00:00 8.8 3 Sudeste 8 Sudeste 0 -- -- 87
2018-12-01 21:00:00 9.1 3 Norte 6 Noroeste 0 -- -- 85
2018-12-01 20:00:00 9.3 3 Oeste 7 Oeste 0 -- -- 83
2018-12-01 19:00:00 9.3 2 Oeste 5 Sudoeste 0 -- -- 83
2018-12-01 18:00:00 9.7 3 Sudoeste 6 Sudoeste 0 -- -- 81
2018-12-01 17:00:00 10.5 3 Oeste 7 Norte 0 -- -- 77
2018-12-01 16:00:00 11.1 5 Nordeste 10 Nordeste 0 -- -- 73
2018-12-01 15:00:00 11.5 5 Nordeste 10 Nordeste 0 -- -- 70
2018-12-01 14:00:00 11.2 5 Norte 11 Norte 0 -- -- 68
2018-12-01 13:00:00 10.5 4 Nordeste 13 Norte 0 -- -- 70
2018-12-01 12:00:00 9.5 5 Nordeste 10 Nordeste 0 -- -- 76
2018-12-01 11:00:00 8 2 Nordeste 5 Norte 0 -- -- 81
2018-12-01 10:00:00 6.2 2 Oeste 5 Oeste 0 -- -- 85
2018-12-01 09:00:00 5.4 2 Oeste 5 Nordeste 0 -- -- 89
2018-12-01 08:00:00 5.1 2 Nordeste 4 Nordeste 0 -- -- 88
2018-12-01 07:00:00 4.9 0 Calma 6 Norte 0 -- -- 88
2018-12-01 06:00:00 5.2 5 Norte 10 Nordeste 0 -- -- 86
2018-12-01 05:00:00 5 2 Nordeste 6 Sudeste 0 -- -- 85
2018-12-01 04:00:00 5.1 2 Oeste 6 Noroeste 0 -- -- 81
2018-12-01 03:00:00 4.5 3 Norte 6 Sur 0 -- -- 88
2018-12-01 02:00:00 4.9 3 Sudoeste 5 Sudoeste 0 -- -- 86
2018-12-01 01:00:00 6.5 2 Norte 9 Oeste 0 -- -- 81
2018-12-01 00:00:00 6.8 3 Oeste 14 Noroeste 0 -- -- 80
2018-11-30 23:00:00 8.6 7 Norte 22 Noroeste 0 -- -- 72
2018-11-30 22:00:00 9.2 8 Norte 17 Norte 0 -- -- 70
2018-11-30 21:00:00 9.4 5 Noroeste 16 Norte 0 -- -- 69
2018-11-30 20:00:00 10.1 4 Noroeste 14 Oeste 0 -- -- 66
2018-11-30 19:00:00 10.3 8 Noroeste 19 Noroeste 0 -- -- 66
2018-11-30 18:00:00 11.1 5 Noroeste 23 Noroeste 0 -- -- 64
2018-11-30 17:00:00 12.4 8 Noroeste 28 Noroeste 0 -- -- 59
2018-11-30 16:00:00 13.1 10 Noroeste 35 Noroeste 0 -- -- 59
2018-11-30 15:00:00 13.2 13 Noroeste 35 Noroeste 0 -- -- 60
2018-11-30 14:00:00 13.1 13 Noroeste 30 Noroeste 0 -- -- 62
2018-11-30 13:00:00 12.8 13 Noroeste 32 Noroeste 0 -- -- 63
2018-11-30 12:00:00 11.9 13 Noroeste 32 Oeste 0 -- -- 68
2018-11-30 11:00:00 10.8 9 Norte 24 Norte 0 -- -- 74
2018-11-30 10:00:00 9.1 9 Norte 22 Norte 0 -- -- 82
2018-11-30 09:00:00 8.6 7 Norte 19 Noroeste 0 -- -- 85
2018-11-30 08:00:00 6.7 4 Oeste 9 Noroeste 0 -- -- 94
2018-11-30 07:00:00 7.4 0 Calma 8 Norte 0 -- -- 92
2018-11-30 06:00:00 7.7 3 Noroeste 15 Noroeste 0.2 -- -- 91
2018-11-30 05:00:00 7.3 3 Noroeste 12 Noroeste 0 -- -- 93
2018-11-30 04:00:00 7.2 6 Noroeste 11 Oeste 0 -- -- 94
2018-11-30 03:00:00 7.3 5 Norte 11 Noroeste 0 -- -- 94
2018-11-30 02:00:00 7.3 8 Norte 13 Norte 0.2 -- -- 93
2018-11-30 01:00:00 7.4 3 Noroeste 6 Noroeste 0 -- -- 87
2018-11-30 00:00:00 7.5 3 Sur 15 Sur 0 -- -- 85
2018-11-29 23:00:00 7.6 6 Sur 13 Sudeste 0 -- -- 85
2018-11-29 22:00:00 7.6 2 Sudoeste 9 Norte 0 -- -- 85
2018-11-29 21:00:00 7.5 0 Calma 7 Norte 0 -- -- 85
2018-11-29 20:00:00 7.6 3 Noroeste 7 Oeste 0 -- -- 85
2018-11-29 19:00:00 8 3 Noroeste 13 Norte 0 -- -- 82
2018-11-29 18:00:00 9 6 Norte 15 Norte 0 -- -- 76
2018-11-29 17:00:00 11.2 2 Este 15 Sudeste 0 -- -- 67
2018-11-29 16:00:00 11.8 10 Sudeste 21 Sur 0 -- -- 63
2018-11-29 15:00:00 11.8 13 Sudeste 22 Sur 0 -- -- 64
2018-11-29 14:00:00 11.1 13 Sudeste 24 Sudeste 0 -- -- 68
2018-11-29 13:00:00 10.3 11 Sudeste 21 Sur 0 -- -- 72
2018-11-29 12:00:00 9.1 13 Sudeste 22 Sudeste 0 -- -- 77
2018-11-29 11:00:00 7.2 10 Sudeste 21 Sur 0 -- -- 84
2018-11-29 10:00:00 4.4 3 Este 11 Sudeste 0 -- -- 92
2018-11-29 09:00:00 2.8 0 Calma 8 Sur 0 -- -- 96
2018-11-29 08:00:00 2.6 6 Sur 15 Sudeste 0 -- -- 96
2018-11-29 07:00:00 2.6 4 Este 11 Sudeste 0 -- -- 96
2018-11-29 06:00:00 2 5 Oeste 9 Oeste 0 -- -- 97
2018-11-29 05:00:00 2.3 4 Sur 9 Sudeste 0 -- -- 96
2018-11-29 04:00:00 1.9 0 Calma 5 Sur 0 -- -- 95
2018-11-29 03:00:00 2.9 2 Sur 9 Sudeste 0 -- -- 95
2018-11-29 02:00:00 2.9 4 Sur 9 Sudeste 0 -- -- 96
2018-11-29 01:00:00 3.1 3 Sur 4 Sur 0 -- -- 94
2018-11-29 00:00:00 3.6 0 Calma 6 Sudoeste 0 -- -- 93
2018-11-28 23:00:00 4.2 0 Calma 8 Nordeste 0 -- -- 92
2018-11-28 22:00:00 4.9 2 Noroeste 5 Sudoeste 0 -- -- 88
2018-11-28 21:00:00 5.8 2 Sudoeste 8 Oeste 0 -- -- 85
2018-11-28 13:00:00 10.5 7 Nordeste 10 Nordeste 0 -- -- 75
2018-11-28 12:00:00 8.2 3 Nordeste 5 Nordeste 0 -- -- 80
2018-11-28 11:00:00 6.4 4 Nordeste 6 Nordeste 0 -- -- 86
2018-11-28 10:00:00 4.5 2 Nordeste 4 Norte 0 -- -- 90
2018-11-28 09:00:00 2.7 0 Calma 3 Noroeste 0 -- -- 97
2018-11-28 08:00:00 2.4 3 Sur 6 Sudoeste 0 -- -- 96
2018-11-28 07:00:00 2.6 2 Norte 6 Nordeste 0 -- -- 96
2018-11-28 06:00:00 2.9 0 Calma 6 Este 0 -- -- 95
2018-11-28 05:00:00 3.3 0 Calma 3 Norte 0 -- -- 96
2018-11-28 04:00:00 3 0 Calma 5 Norte 0 -- -- 95
2018-11-28 03:00:00 3.6 2 Noroeste 5 Noroeste 0 -- -- 95
2018-11-28 02:00:00 4.1 2 Noroeste 6 Sudoeste 0 -- -- 94
2018-11-28 01:00:00 4 2 Noroeste 4 Noroeste 0 -- -- 94
2018-11-28 00:00:00 4.5 0 Calma 6 Oeste 0 -- -- 92
2018-11-27 23:00:00 5.2 0 Calma 5 Sudoeste 0 -- -- 92
2018-11-27 22:00:00 6 3 Oeste 8 Noroeste 0 -- -- 89
2018-11-27 21:00:00 6.9 4 Noroeste 7 Noroeste 0 -- -- 87
2018-11-27 20:00:00 7.8 0 Calma 5 Oeste 0 -- -- 85
2018-11-27 19:00:00 8.9 3 Oeste 7 Oeste 0 -- -- 79
2018-11-27 18:00:00 10.3 0 Calma 7 Norte 0 -- -- 72
2018-11-27 17:00:00 12.1 3 Noroeste 9 Noroeste 0 -- -- 62
2018-11-27 16:00:00 13 4 Norte 15 Noroeste 0 -- -- 56
2018-11-27 15:00:00 13.2 6 Norte 18 Norte 0 -- -- 55
2018-11-27 14:00:00 12.6 8 Norte 22 Norte 0 -- -- 59
2018-11-27 13:00:00 11.9 10 Norte 23 Norte 0 -- -- 62
2018-11-27 12:00:00 11 9 Noroeste 22 Noroeste 0 -- -- 66
2018-11-27 11:00:00 10.2 6 Noroeste 18 Noroeste 0 -- -- 69
2018-11-27 10:00:00 8.9 5 Norte 15 Norte 0 -- -- 75
2018-11-27 09:00:00 6.1 2 Noroeste 6 Oeste 0 -- -- 89
2018-11-27 08:00:00 6.8 0 Calma 6 Nordeste 0 -- -- 87
2018-11-27 07:00:00 8.2 3 Noroeste 11 Noroeste 0 -- -- 82
2018-11-27 06:00:00 8.7 6 Oeste 14 Norte 0 -- -- 81
2018-11-27 05:00:00 9.3 6 Noroeste 18 Oeste 0 -- -- 77
2018-11-27 04:00:00 9.6 8 Noroeste 27 Noroeste 0 -- -- 75
2018-11-27 03:00:00 9.5 8 Noroeste 25 Noroeste 0 -- -- 76
2018-11-27 02:00:00 9.1 9 Noroeste 24 Noroeste 0 -- -- 77
2018-11-27 01:00:00 9 9 Noroeste 23 Noroeste 0 -- -- 77
2018-11-27 00:00:00 9.2 9 Noroeste 27 Noroeste 0 -- -- 77
2018-11-26 23:00:00 9.5 10 Noroeste 33 Noroeste 0 -- -- 74
2018-11-26 22:00:00 9.7 13 Noroeste 29 Noroeste 0 -- -- 75
2018-11-26 21:00:00 9.4 12 Noroeste 28 Noroeste 0 -- -- 78
2018-11-26 20:00:00 9.3 12 Noroeste 32 Noroeste 0 -- -- 79
2018-11-26 19:00:00 9.6 7 Noroeste 32 Noroeste 0 -- -- 77
2018-11-26 18:00:00 10.3 12 Noroeste 38 Noroeste 0 -- -- 73
2018-11-26 17:00:00 11.1 13 Noroeste 41 Noroeste 0 -- -- 68
2018-11-26 16:00:00 11.4 13 Noroeste 40 Noroeste 0 -- -- 67
2018-11-26 15:00:00 11.9 17 Noroeste 40 Noroeste 0 -- -- 65
2018-11-26 14:00:00 11.2 16 Noroeste 41 Noroeste 0 -- -- 65
2018-11-26 13:00:00 10.9 13 Noroeste 39 Noroeste 0 -- -- 67
2018-11-26 12:00:00 10.3 14 Noroeste 41 Norte 0 -- -- 68
2018-11-26 11:00:00 9 14 Noroeste 34 Noroeste 0 -- -- 75
2018-11-26 10:00:00 7.8 14 Noroeste 32 Noroeste 0 -- -- 84
2018-11-26 09:00:00 6.4 13 Noroeste 32 Noroeste 0 -- -- 90
2018-11-26 08:00:00 6.1 10 Noroeste 24 Noroeste 0.2 -- -- 96
2018-11-26 07:00:00 6.3 11 Norte 27 Noroeste 1.4 -- -- 98
2018-11-26 06:00:00 6.5 12 Norte 23 Noroeste 1 -- -- 98
2018-11-26 05:00:00 6.7 7 Sudeste 15 Sudeste 0 -- -- 98
2018-11-26 04:00:00 6.9 6 Sur 12 Sur 0.8 -- -- 96
2018-11-26 03:00:00 6.5 4 Este 17 Sudeste 0.6 -- -- 96
2018-11-26 02:00:00 6 9 Sur 16 Sur 0.2 -- -- 95
2018-11-26 01:00:00 6.3 7 Sudeste 13 Sur 0 -- -- 94
2018-11-26 00:00:00 6.4 3 Oeste 8 Sudoeste 0 -- -- 90
2018-11-25 23:00:00 6.5 0 Calma 5 Noroeste 0 -- -- 90
2018-11-25 22:00:00 6.5 0 Calma 8 Sur 0 -- -- 90
2018-11-25 21:00:00 6.6 3 Sudoeste 8 Sudoeste 0 -- -- 89
2018-11-25 20:00:00 6.7 5 Norte 9 Norte 0 -- -- 88
2018-11-25 19:00:00 8 3 Noroeste 8 Sudoeste 0 -- -- 83
2018-11-25 18:00:00 8.8 0 Calma 6 Nordeste 0 -- -- 79
2018-11-25 17:00:00 11.1 3 Norte 15 Norte 0 -- -- 68
2018-11-25 16:00:00 11.7 7 Norte 21 Norte 0 -- -- 65
2018-11-25 15:00:00 12.3 9 Norte 24 Norte 0 -- -- 65
2018-11-25 14:00:00 11.5 9 Norte 23 Norte 0 -- -- 68
2018-11-25 13:00:00 11.2 7 Noroeste 17 Noroeste 0 -- -- 75
2018-11-25 12:00:00 9.9 5 Oeste 14 Noroeste 0 -- -- 86
2018-11-25 11:00:00 8.4 6 Oeste 13 Oeste 0 -- -- 93
2018-11-25 10:00:00 7.4 4 Noroeste 22 Noroeste 0.8 -- -- 95
2018-11-25 09:00:00 7.7 6 Oeste 21 Norte 0.2 -- -- 94
2018-11-25 08:00:00 7.4 6 Sudeste 20 Sudeste 0 -- -- 86
2018-11-25 07:00:00 8.1 6 Sur 13 Este 0 -- -- 83
2018-11-25 06:00:00 7.4 4 Este 15 Sudeste 0 -- -- 84
2018-11-25 05:00:00 6.8 5 Sudeste 21 Este 0 -- -- 85
2018-11-25 04:00:00 6.5 5 Sudeste 14 Nordeste 0 -- -- 85
2018-11-25 03:00:00 6 5 Nordeste 10 Este 0 -- -- 85
2018-11-25 02:00:00 5.8 3 Oeste 9 Sudoeste 0 -- -- 87
2018-11-25 01:00:00 7 6 Nordeste 12 Nordeste 0 -- -- 84
2018-11-25 00:00:00 6.7 3 Sudoeste 14 Nordeste 0 -- -- 83
2018-11-24 23:00:00 6.1 5 Norte 11 Norte 0 -- -- 86
2018-11-24 22:00:00 6.8 2 Sur 14 Nordeste 0 -- -- 83
2018-11-24 21:00:00 7.2 4 Nordeste 13 Oeste 0 -- -- 79
2018-11-24 20:00:00 8.4 6 Noroeste 13 Oeste 0 -- -- 74
2018-11-24 19:00:00 8.9 3 Sur 8 Sur 0 -- -- 78
2018-11-24 18:00:00 10.7 3 Sur 15 Sudeste 0 -- -- 70
2018-11-24 17:00:00 12.1 7 Sudeste 15 Sur 0 -- -- 65
2018-11-24 16:00:00 12.3 9 Sur 18 Sur 0 -- -- 67
2018-11-24 15:00:00 12.2 11 Sudeste 18 Sudeste 0 -- -- 68
2018-11-24 14:00:00 10.7 6 Sudeste 23 Sudeste 0 -- -- 74
2018-11-24 13:00:00 10.3 12 Sudeste 20 Sudeste 0 -- -- 72
2018-11-24 12:00:00 9.3 12 Sudeste 21 Sudeste 0 -- -- 75
2018-11-24 11:00:00 8.2 12 Sudeste 20 Sudeste 0 -- -- 76
2018-11-24 10:00:00 6.9 8 Sudeste 15 Sudeste 0 -- -- 82
2018-11-24 09:00:00 4.6 8 Sur 15 Sudeste 0 -- -- 90
2018-11-24 08:00:00 4.2 7 Sudeste 15 Sudeste 0 -- -- 91
2018-11-24 07:00:00 4.5 5 Sur 13 Sudeste 0 -- -- 90
2018-11-24 06:00:00 5.1 5 Sudeste 15 Sudoeste 0 -- -- 86
2018-11-24 05:00:00 7.3 3 Este 15 Sudoeste 0 -- -- 74
2018-11-24 04:00:00 7.6 3 Sudoeste 16 Oeste 0 -- -- 73
2018-11-24 03:00:00 8.3 6 Sudoeste 14 Sur 0 -- -- 71
2018-11-24 02:00:00 9.1 7 Sudoeste 21 Oeste 0 -- -- 68
2018-11-24 01:00:00 8.8 7 Sudoeste 13 Oeste 0 -- -- 69
2018-11-24 00:00:00 7.8 6 Oeste 18 Sudoeste 0 -- -- 73
2018-11-23 23:00:00 5.7 3 Sur 9 Oeste 0 -- -- 87
2018-11-23 22:00:00 6 3 Norte 8 Sudoeste 0 -- -- 87
2018-11-23 21:00:00 6.7 2 Sudoeste 6 Sur 0 -- -- 86
2018-11-23 20:00:00 7.6 3 Oeste 9 Sudoeste 0 -- -- 88
2018-11-23 19:00:00 8.5 0 Calma 6 Oeste 0 -- -- 87
2018-11-23 18:00:00 10 3 Noroeste 5 Norte 0 -- -- 80
2018-11-23 17:00:00 12.8 3 Noroeste 20 Oeste 0 -- -- 65
2018-11-23 16:00:00 13.8 9 Sudoeste 21 Sudoeste 0 -- -- 53
2018-11-23 15:00:00 14 8 Oeste 23 Sudoeste 0 -- -- 54
2018-11-23 14:00:00 12.8 13 Sur 23 Sur 0 -- -- 64
2018-11-23 13:00:00 10.3 5 Sudeste 14 Este 0 -- -- 83
2018-11-23 12:00:00 9 5 Sudoeste 12 Sudoeste 0 -- -- 92
2018-11-23 11:00:00 8.4 2 Sudeste 8 Este 0.4 -- -- 96
2018-11-23 10:00:00 7.7 4 Nordeste 16 Norte 2.6 -- -- 97
2018-11-23 09:00:00 7.6 9 Norte 21 Norte 2 -- -- 96
2018-11-23 08:00:00 7.7 6 Sudeste 16 Sudeste 0.2 -- -- 98
2018-11-23 07:00:00 7.8 6 Sudeste 15 Sudeste 1 -- -- 96
2018-11-23 06:00:00 8.2 7 Sur 12 Sur 0.4 -- -- 93
2018-11-23 05:00:00 8.1 4 Sur 12 Sur 0 -- -- 91
2018-11-23 04:00:00 8.2 4 Sudeste 11 Sudeste 0 -- -- 89
2018-11-23 03:00:00 8.5 3 Sudeste 11 Sudeste 0 -- -- 88
2018-11-23 02:00:00 8.7 4 Sudeste 13 Sudeste 0 -- -- 88
2018-11-23 01:00:00 8.8 6 Sudeste 12 Sudeste 0 -- -- 87
2018-11-23 00:00:00 9.2 8 Sudeste 21 Sudeste 0 -- -- 86
2018-11-22 23:00:00 9.4 12 Sudeste 24 Sudeste 0 -- -- 82
2018-11-22 22:00:00 10 13 Sudeste 23 Sudeste 0 -- -- 80
2018-11-22 21:00:00 10.2 10 Sudeste 23 Sudeste 0 -- -- 81
2018-11-22 20:00:00 10.9 13 Sudeste 24 Sudeste 0 -- -- 74
2018-11-22 19:00:00 10.8 12 Sudeste 22 Sudeste 0 -- -- 79
2018-11-22 18:00:00 11.3 13 Sudeste 24 Sudeste 0 -- -- 75
2018-11-22 17:00:00 12.5 9 Sudeste 19 Sudeste 0 -- -- 74
2018-11-22 16:00:00 -- 6 Sudeste 16 Sudeste 0 -- -- --
2018-11-22 15:00:00 11.9 6 Sudeste 14 Sur 0 -- -- 76
2018-11-22 14:00:00 10.9 3 Este 12 Sudeste 0 -- -- 81
2018-11-22 13:00:00 8.7 5 Sur 13 Sur 0 -- -- 87
2018-11-22 12:00:00 7.4 9 Sudeste 15 Sur 0 -- -- 91
2018-11-22 11:00:00 6.2 7 Sudeste 12 Sudeste 0 -- -- 94
2018-11-22 10:00:00 5.6 5 Sudeste 10 Sur 0 -- -- 96
2018-11-22 09:00:00 4.6 0 Calma 4 Sudoeste 0 -- -- 97
2018-11-22 08:00:00 4.9 0 Calma 8 Sudeste 0 -- -- 97
2018-11-22 07:00:00 4.7 5 Sur 7 Sur 0 -- -- 96
2018-11-22 06:00:00 5.2 4 Sur 8 Oeste 0 -- -- 95
2018-11-22 05:00:00 6.1 2 Sudoeste 17 Sudoeste 0 -- -- 92
2018-11-22 04:00:00 6 5 Sudeste 10 Este 0 -- -- 94
2018-11-22 03:00:00 5.8 0 Calma 5 Sudoeste 0 -- -- 95
2018-11-22 02:00:00 6.9 3 Oeste 8 Nordeste 0 -- -- 91
2018-11-22 01:00:00 7.9 5 Sur 11 Sudoeste 0 -- -- 87
2018-11-22 00:00:00 7.8 3 Este 10 Este 0 -- -- 90
2018-11-21 23:00:00 7.8 0 Calma 11 Sudeste 0 -- -- 89
2018-11-21 22:00:00 8.5 3 Sur 12 Sur 0 -- -- 87
2018-11-21 21:00:00 9.6 4 Sudeste 7 Oeste 0 -- -- 84
2018-11-21 20:00:00 10.1 4 Sur 9 Oeste 0 -- -- 79
2018-11-21 19:00:00 10.7 3 Este 6 Sudoeste 0 -- -- 83
2018-11-21 18:00:00 11.8 3 Sur 10 Sudoeste 0 -- -- 78
2018-11-21 17:00:00 13 5 Sur 25 Sur 0 -- -- 72
2018-11-21 16:00:00 13.9 8 Sur 21 Sudeste 0 -- -- 72
2018-11-21 15:00:00 13.8 10 Sur 23 Sur 0 -- -- 74
2018-11-21 14:00:00 13 8 Sudeste 21 Este 0 -- -- 82
2018-11-21 13:00:00 9.5 9 Sudeste 15 Sudeste 0.4 -- -- 98
2018-11-21 12:00:00 8 6 Sur 19 Sudeste 0 -- -- 100
2018-11-21 11:00:00 7.4 13 Sudeste 24 Sudeste 0 -- -- 100
2018-11-21 10:00:00 6.9 10 Sudeste 27 Sudeste 0 -- -- 100
2018-11-21 09:00:00 6.4 12 Sudeste 29 Sudeste 0 -- -- 100
2018-11-21 08:00:00 6.7 9 Sudeste 27 Sudeste 0 -- -- 100
2018-11-21 07:00:00 6.2 17 Sudeste 27 Sur 0 -- -- 100
2018-11-21 06:00:00 6 7 Sur 15 Sudeste 0 -- -- 99
2018-11-21 05:00:00 5.6 4 Sur 8 Sur 0 -- -- 99
2018-11-21 04:00:00 5.1 0 Calma 6 Sur 0 -- -- 98
2018-11-21 03:00:00 5.6 2 Norte 4 Norte 0 -- -- 97
2018-11-21 02:00:00 5.7 0 Calma 4 Oeste 0 -- -- 97
2018-11-21 01:00:00 6 3 Noroeste 4 Oeste 0 -- -- 96
2018-11-21 00:00:00 6.8 3 Norte 6 Norte 0 -- -- 95
2018-11-20 23:00:00 6.9 4 Noroeste 11 Noroeste 0 -- -- 95
2018-11-20 22:00:00 7.3 4 Noroeste 10 Norte 0 -- -- 93
2018-11-20 21:00:00 7.9 4 Noroeste 10 Noroeste 0 -- -- 95
2018-11-20 20:00:00 8 3 Noroeste 11 Norte 0 -- -- 95
2018-11-20 19:00:00 8.4 3 Oeste 7 Noroeste 0 -- -- 96
2018-11-20 18:00:00 8.5 2 Norte 6 Norte 0.4 -- -- 94
2018-11-20 17:00:00 8.8 2 Nordeste 7 Nordeste 0.2 -- -- 91
2018-11-20 16:00:00 8.8 4 Este 11 Este 0 -- -- 90
2018-11-20 15:00:00 8.5 4 Este 10 Este 0 -- -- 91
2018-11-20 14:00:00 8.4 3 Nordeste 10 Sudeste 0 -- -- 91
2018-11-20 13:00:00 7.7 7 Sudeste 13 Sudeste 2 -- -- 94
2018-11-20 12:00:00 7.9 3 Sudeste 11 Este 0.4 -- -- 94
2018-11-20 11:00:00 7.5 3 Este 9 Sudeste 1 -- -- 94
2018-11-20 10:00:00 7.5 3 Este 6 Este 0 -- -- 91
2018-11-20 09:00:00 7.3 3 Sur 7 Sur 0.6 -- -- 93
2018-11-20 08:00:00 7.4 2 Oeste 5 Sudoeste 0.8 -- -- 93
2018-11-20 07:00:00 8 0 Calma 5 Oeste 0 -- -- 87
2018-11-20 06:00:00 8.2 0 Calma 8 Noroeste 0 -- -- 84
2018-11-20 05:00:00 8.3 3 Oeste 10 Oeste 0 -- -- 82
2018-11-20 04:00:00 8.6 4 Noroeste 13 Noroeste 0 -- -- 79
2018-11-20 03:00:00 8.8 0 Calma 9 Oeste 0 -- -- 78
2018-11-20 02:00:00 8.9 3 Oeste 12 Oeste 0 -- -- 79
2018-11-20 01:00:00 9.1 4 Oeste 14 Norte 0 -- -- 80
2018-11-20 00:00:00 8.9 3 Noroeste 6 Noroeste 0 -- -- 88
2018-11-19 23:00:00 9.5 0 Calma 5 Noroeste 0 -- -- 87
2018-11-19 22:00:00 10.6 2 Noroeste 9 Oeste 0 -- -- 80
2018-11-19 21:00:00 11.6 3 Oeste 12 Noroeste 0 -- -- 77
2018-11-19 20:00:00 11.6 3 Noroeste 9 Sudoeste 0 -- -- 84
2018-11-19 19:00:00 12.4 6 Oeste 9 Sudoeste 0 -- -- 81
2018-11-19 18:00:00 13.3 5 Oeste 10 Noroeste 0 -- -- 74
2018-11-19 17:00:00 14.4 4 Noroeste 18 Noroeste 0 -- -- 68
2018-11-19 16:00:00 14.8 5 Noroeste 13 Norte 0 -- -- 68
2018-11-19 15:00:00 14.6 5 Noroeste 16 Oeste 0 -- -- 70
2018-11-19 14:00:00 13.8 5 Oeste 11 Noroeste 0 -- -- 76
2018-11-19 13:00:00 12.9 4 Noroeste 8 Norte 0 -- -- 79
2018-11-19 12:00:00 11.8 4 Nordeste 9 Norte 0 -- -- 88
2018-11-19 11:00:00 10.7 8 Norte 14 Nordeste 0 -- -- 92
2018-11-19 10:00:00 9.9 3 Noroeste 12 Oeste 0 -- -- 95
2018-11-19 09:00:00 9.6 5 Oeste 8 Oeste 0 -- -- 95
2018-11-19 08:00:00 9.5 3 Norte 9 Norte 0 -- -- 95
2018-11-19 07:00:00 9.5 0 Calma 6 Norte 0 -- -- 96
2018-11-19 06:00:00 9.3 2 Noroeste 4 Oeste 0 -- -- 96
2018-11-19 05:00:00 9.5 2 Norte 5 Norte 0 -- -- 97
2018-11-19 04:00:00 9.5 0 Calma 3 Norte 0 -- -- 97
2018-11-19 03:00:00 9.3 2 Oeste 5 Sudoeste 0 -- -- 96
2018-11-19 02:00:00 9.6 0 Calma 5 Sudeste 0 -- -- 95
2018-11-19 01:00:00 9.6 4 Sur 11 Sudeste 0 -- -- 95
2018-11-19 00:00:00 9.7 6 Sur 13 Sur 0 -- -- 94
2018-11-18 23:00:00 10 6 Sudeste 17 Sur 0.2 -- -- 91
2018-11-18 22:00:00 10 7 Sur 15 Sudeste 0 -- -- 92
2018-11-18 21:00:00 10.2 7 Sudeste 21 Sudeste 0.2 -- -- 93
2018-11-18 20:00:00 10.2 9 Sur 17 Sur 0 -- -- 93
2018-11-18 19:00:00 10.1 6 Sudeste 15 Sudeste 0 -- -- 95
2018-11-18 18:00:00 10 10 Sudeste 18 Sur 0 -- -- 94
2018-11-18 17:00:00 9.8 5 Sudeste 13 Sur 0 -- -- 95
2018-11-18 16:00:00 9.7 7 Sudeste 14 Sudeste 0 -- -- 96
2018-11-18 15:00:00 9.6 6 Sudeste 19 Sur 0.4 -- -- 97
2018-11-18 14:00:00 9.5 11 Sudeste 21 Sudeste 0.4 -- -- 97
2018-11-18 13:00:00 9.5 7 Sudeste 19 Sudeste 0.2 -- -- 98
2018-11-18 12:00:00 9.4 8 Sudeste 21 Sur 0.2 -- -- 97
2018-11-18 11:00:00 9.5 13 Sudeste 24 Sudeste 0.2 -- -- 95
2018-11-18 10:00:00 9.5 11 Sudeste 26 Sudeste 4.4 -- -- 96
2018-11-18 09:00:00 9.7 4 Sudeste 16 Sudeste 5.6 -- -- 97
2018-11-18 08:00:00 10.4 7 Sudeste 20 Sur 1.4 -- -- 93
2018-11-18 07:00:00 10.9 9 Sudeste 22 Sudeste 0 -- -- 91
2018-11-18 06:00:00 11.1 9 Sudeste 16 Sudeste 0 -- -- 94
2018-11-18 05:00:00 11.2 8 Sudeste 14 Sudeste 0 -- -- 94
2018-11-18 04:00:00 11.2 3 Sudeste 8 Sudeste 0 -- -- 96
2018-11-18 03:00:00 11.2 3 Sudeste 6 Sudeste 0 -- -- 95
2018-11-18 02:00:00 11.3 3 Sudeste 11 Este 0 -- -- 95
2018-11-18 01:00:00 11.6 3 Este 5 Este 0 -- -- 94
2018-11-18 00:00:00 11.3 0 Calma 3 Oeste 0 -- -- 95
2018-11-17 23:00:00 11.2 2 Oeste 4 Sudeste 0 -- -- 95
2018-11-17 22:00:00 11.3 2 Este 4 Sudeste 0 -- -- 94
2018-11-17 21:00:00 11.5 0 Calma 3 Este 0 -- -- 95
2018-11-17 20:00:00 11.4 0 Calma 5 Sudeste 0 -- -- 93
2018-11-17 19:00:00 12 0 Calma 6 Sudeste 0 -- -- 91
2018-11-17 18:00:00 12.9 2 Este 12 Sudeste 0 -- -- 87
2018-11-17 17:00:00 13.9 6 Sur 18 Sudeste 0 -- -- 83
2018-11-17 16:00:00 14 10 Sudeste 22 Sudeste 0 -- -- 83
2018-11-17 15:00:00 14.1 10 Sudeste 20 Sudeste 0 -- -- 83
2018-11-17 14:00:00 13.7 9 Sudeste 15 Sudeste 0 -- -- 85
2018-11-17 13:00:00 13.4 5 Sudeste 13 Sur 0 -- -- 85
2018-11-17 12:00:00 13.2 5 Sudeste 9 Sur 0 -- -- 90
2018-11-17 11:00:00 12.9 4 Sur 9 Sudeste 0 -- -- 90
2018-11-17 10:00:00 12.3 4 Sur 9 Sur 0 -- -- 95
2018-11-17 09:00:00 12 4 Sur 13 Sur 0 -- -- 95
2018-11-17 08:00:00 11.9 5 Sudeste 11 Sur 0 -- -- 97
2018-11-17 07:00:00 12 6 Sudeste 10 Sudeste 0 -- -- 97
2018-11-17 06:00:00 12.1 6 Sudeste 12 Sudeste 0 -- -- 98
2018-11-17 05:00:00 12.1 8 Sudeste 15 Sur 0 -- -- 98
2018-11-17 04:00:00 11.9 5 Sudeste 9 Sudeste 0 -- -- 97
2018-11-17 03:00:00 11.6 4 Sur 12 Sudeste 0 -- -- 96
2018-11-17 02:00:00 11.1 0 Calma 6 Oeste 0 -- -- 98
2018-11-17 01:00:00 10.9 3 Oeste 7 Oeste 0 -- -- 96
2018-11-17 00:00:00 11.6 3 Sudeste 10 Este 0 -- -- 96
2018-11-16 23:00:00 12 3 Este 7 Este 0 -- -- 96
2018-11-16 22:00:00 12.1 0 Calma 8 Sur 0 -- -- 93
2018-11-16 21:00:00 13 5 Sudeste 10 Sudeste 0 -- -- 91
2018-11-16 20:00:00 14 6 Sudeste 9 Sur 0 -- -- 88
2018-11-16 19:00:00 15 3 Sudeste 15 Sudeste 0 -- -- 84
2018-11-16 18:00:00 15.4 4 Sudeste 15 Sudeste 0 -- -- 83
2018-11-16 17:00:00 15.8 6 Sudeste 17 Sur 0 -- -- 81
2018-11-16 16:00:00 16.2 8 Sudeste 19 Sudeste 0 -- -- 79
2018-11-16 15:00:00 16.4 13 Sudeste 22 Sudeste 0 -- -- 79
2018-11-16 14:00:00 15.9 9 Sudeste 15 Sudeste 0 -- -- 81
2018-11-16 13:00:00 15.4 5 Sudeste 13 Sur 0 -- -- 85
2018-11-16 12:00:00 14.4 8 Sudeste 15 Sudeste 0 -- -- 88
2018-11-16 11:00:00 13.4 5 Sudeste 9 Sudeste 0 -- -- 92
2018-11-16 10:00:00 13 5 Sudeste 9 Sudeste 0 -- -- 92
2018-11-16 09:00:00 12.6 3 Sur 8 Sudeste 0 -- -- 93
2018-11-16 08:00:00 12.5 3 Sudeste 6 Nordeste 0 -- -- 93
2018-11-16 07:00:00 12.3 4 Nordeste 6 Sudeste 0 -- -- 95
2018-11-16 06:00:00 12.5 2 Sur 8 Sudeste 0 -- -- 95
2018-11-16 05:00:00 12.2 3 Este 6 Este 0 -- -- 96
2018-11-16 04:00:00 11.8 0 Calma 4 Sudeste 0 -- -- 96
2018-11-16 03:00:00 11.5 0 Calma 6 Oeste 0 -- -- 96
2018-11-16 02:00:00 11.7 0 Calma 2 Oeste 0 -- -- 96
2018-11-16 01:00:00 12 0 Calma 3 Sudoeste 0 -- -- 96
2018-11-16 00:00:00 12.4 0 Calma 4 Oeste 0 -- -- 95
2018-11-15 23:00:00 12.4 0 Calma 6 Oeste 0 -- -- 94
2018-11-15 22:00:00 13.3 2 Sudoeste 8 Sudeste 0 -- -- 94
2018-11-15 21:00:00 13.5 4 Sudeste 8 Sudeste 0 -- -- 93
2018-11-15 20:00:00 13.9 4 Sudeste 9 Sudeste 0 -- -- 91
2018-11-15 19:00:00 14.7 4 Sudeste 10 Sudeste 0 -- -- 88
2018-11-15 18:00:00 15.7 5 Sudeste 18 Sudeste 0 -- -- 84
2018-11-15 17:00:00 16.6 10 Sudeste 21 Sur 0 -- -- 79
2018-11-15 16:00:00 17 10 Sudeste 20 Sur 0 -- -- 75
2018-11-15 15:00:00 17.6 9 Sudeste 20 Sur 0 -- -- 73
2018-11-15 14:00:00 16.6 12 Sudeste 23 Sudeste 0 -- -- 78
2018-11-15 13:00:00 16 6 Sudeste 15 Sudeste 0 -- -- 82
2018-11-15 12:00:00 15.7 7 Sudeste 13 Sur 0 -- -- 83
2018-11-15 11:00:00 14.8 3 Este 13 Sudeste 0 -- -- 88
2018-11-15 10:00:00 13.9 6 Sudeste 13 Sudeste 0 -- -- 91
2018-11-15 09:00:00 13.4 5 Sudeste 9 Sudeste 0 -- -- 93
2018-11-15 08:00:00 12.9 3 Sudeste 6 Sudeste 0 -- -- 95
2018-11-15 07:00:00 12.9 3 Este 8 Sudeste 0 -- -- 95
2018-11-15 06:00:00 12.7 3 Sudeste 8 Sudeste 0 -- -- 95
2018-11-15 05:00:00 12.4 3 Sudeste 11 Sudeste 0 -- -- 94
2018-11-15 04:00:00 12.3 7 Sudeste 14 Sudeste 0 -- -- 93
2018-11-15 03:00:00 12.5 7 Sudeste 12 Sudeste 0 -- -- 92
2018-11-15 02:00:00 13.2 3 Sudeste 7 Sudeste 0 -- -- 92
2018-11-15 01:00:00 13.4 3 Sur 10 Sudeste 0 -- -- 91
2018-11-15 00:00:00 13.5 3 Sudeste 9 Sudeste 0 -- -- 92
2018-11-14 23:00:00 13.9 4 Sur 13 Sudeste 0 -- -- 92
2018-11-14 22:00:00 14 5 Sur 14 Sur 0 -- -- 92
2018-11-14 21:00:00 14.5 7 Sur 13 Sur 0 -- -- 90
2018-11-14 20:00:00 14.4 8 Sudeste 15 Sur 0 -- -- 89
2018-11-14 19:00:00 15.2 10 Sur 17 Sur 0 -- -- 85
2018-11-14 18:00:00 15.6 8 Sudeste 16 Sudeste 0 -- -- 83
2018-11-14 17:00:00 16.4 11 Sudeste 26 Sur 0 -- -- 79
2018-11-14 16:00:00 16.7 12 Sudeste 28 Sudeste 0 -- -- 78
2018-11-14 15:00:00 17.2 9 Sudeste 23 Sudeste 0 -- -- 77
2018-11-14 14:00:00 16.8 12 Sudeste 25 Sudeste 0 -- -- 78
2018-11-14 13:00:00 15.6 8 Sudeste 18 Sudeste 0 -- -- 84
2018-11-14 12:00:00 14.7 8 Sudeste 15 Sur 0 -- -- 86
2018-11-14 11:00:00 13.2 2 Sur 6 Sudeste 0 -- -- 90
2018-11-14 10:00:00 11.4 3 Sudoeste 5 Sudoeste 0 -- -- 93
2018-11-14 09:00:00 10.6 3 Oeste 7 Oeste 0 -- -- 92
2018-11-14 08:00:00 10.1 4 Oeste 8 Oeste 0 -- -- 92
2018-11-14 07:00:00 10.5 2 Oeste 4 Oeste 0 -- -- 92
2018-11-14 06:00:00 10.4 0 Calma 6 Oeste 0 -- -- 89
2018-11-14 05:00:00 10.8 3 Sudoeste 8 Sudoeste 0 -- -- 87
2018-11-14 04:00:00 11.4 2 Sudoeste 6 Sudoeste 0 -- -- 89
2018-11-14 03:00:00 11.4 0 Calma 3 Sudoeste 0 -- -- 92
2018-11-14 02:00:00 11.1 0 Calma 5 Oeste 0 -- -- 92
2018-11-14 01:00:00 10.6 0 Calma 3 Noroeste 0 -- -- 94
2018-11-14 00:00:00 10.2 0 Calma 3 Oeste 0 -- -- 94
2018-11-13 23:00:00 11 0 Calma 3 Noroeste 0 -- -- 94
2018-11-13 22:00:00 11.1 0 Calma 4 Oeste 0 -- -- 92
2018-11-13 21:00:00 12.1 0 Calma 3 Sudoeste 0 -- -- 89
2018-11-13 20:00:00 13.3 3 Sur 5 Sudeste 0 -- -- 88
2018-11-13 19:00:00 14.8 2 Sudeste 7 Sudeste 0 -- -- 82
2018-11-13 18:00:00 15.9 3 Sudeste 8 Sudeste 0 -- -- 77
2018-11-13 17:00:00 17 5 Sudeste 14 Sur 0 -- -- 72
2018-11-13 16:00:00 17.7 8 Sudeste 17 Sudeste 0 -- -- 69
2018-11-13 15:00:00 18.3 5 Sur 10 Sudoeste 0 -- -- 68
2018-11-13 14:00:00 17.2 2 Sudeste 12 Nordeste 0 -- -- 72
2018-11-13 13:00:00 16.6 6 Nordeste 13 Norte 0 -- -- 74
2018-11-13 12:00:00 15.1 7 Norte 21 Noroeste 0 -- -- 75
2018-11-13 11:00:00 14.8 8 Norte 21 Norte 0 -- -- 77
2018-11-13 10:00:00 13.8 5 Noroeste 18 Norte 0 -- -- 81
2018-11-13 09:00:00 13.5 4 Noroeste 16 Norte 0 -- -- 82
2018-11-13 08:00:00 13.3 6 Norte 17 Nordeste 0 -- -- 81
2018-11-13 07:00:00 13.3 3 Oeste 12 Noroeste 0 -- -- 83
2018-11-13 06:00:00 13.2 5 Norte 23 Noroeste 0 -- -- 83
2018-11-13 05:00:00 13.2 6 Noroeste 17 Oeste 0 -- -- 86
2018-11-13 04:00:00 13.9 5 Noroeste 16 Oeste 0 -- -- 88
2018-11-13 03:00:00 14 4 Norte 10 Norte 0 -- -- 89
2018-11-13 02:00:00 13.7 4 Nordeste 6 Norte 0 -- -- 91
2018-11-13 01:00:00 13.9 3 Oeste 6 Sudeste 0 -- -- 89
2018-11-13 00:00:00 14 3 Este 6 Este 0 -- -- 88
2018-11-12 23:00:00 13.7 2 Nordeste 6 Sur 0 -- -- 88
2018-11-12 22:00:00 14.9 6 Sur 15 Sudeste 0 -- -- 84
2018-11-12 21:00:00 15.6 8 Sur 20 Sudeste 0 -- -- 81
2018-11-12 20:00:00 16.3 8 Sudeste 19 Sudeste 0 -- -- 80
2018-11-12 19:00:00 16.6 13 Sudeste 22 Sudeste 0 -- -- 79
2018-11-12 18:00:00 17 7 Sur 19 Sudeste 0 -- -- 75
2018-11-12 17:00:00 17.8 9 Sur 28 Sudeste 0 -- -- 71
2018-11-12 16:00:00 18.7 16 Sudeste 31 Sudeste 0 -- -- 68
2018-11-12 15:00:00 18.6 18 Sudeste 33 Sudeste 0 -- -- 67
2018-11-12 14:00:00 17.8 14 Sudeste 29 Este 0 -- -- 73
2018-11-12 13:00:00 16.1 19 Sur 34 Sudeste 0 -- -- 80
2018-11-12 12:00:00 16.2 17 Sudeste 32 Sudeste 0 -- -- 80
2018-11-12 11:00:00 14.8 14 Sudeste 28 Sur 0 -- -- 86
2018-11-12 10:00:00 13.4 17 Sudeste 29 Sur 0 -- -- 91
2018-11-12 09:00:00 13.1 8 Sudeste 23 Sudeste 0 -- -- 92
2018-11-12 08:00:00 12.9 13 Sudeste 27 Sur 0 -- -- 92
2018-11-12 07:00:00 13.3 14 Sudeste 25 Sudeste 0 -- -- 91
2018-11-12 06:00:00 13.2 12 Sur 34 Sur 0 -- -- 90
2018-11-12 05:00:00 12.9 5 Sur 41 Sudeste 0 -- -- 90
2018-11-12 04:00:00 13.2 23 Sudeste 38 Sudeste 0 -- -- 89
2018-11-12 03:00:00 13.5 19 Sudeste 32 Sudeste 0 -- -- 87
2018-11-12 02:00:00 12.8 7 Sudeste 26 Este 0 -- -- 89
2018-11-12 01:00:00 13.6 17 Sudeste 33 Sur 0 -- -- 84
2018-11-12 00:00:00 14.1 19 Sudeste 36 Sudeste 0 -- -- 82
2018-11-11 23:00:00 15.1 26 Sudeste 38 Sudeste 0 -- -- 79
2018-11-11 22:00:00 15.4 14 Sudeste 29 Sur 0 -- -- 79
2018-11-11 21:00:00 15.4 7 Este 16 Este 0 -- -- 79
2018-11-11 20:00:00 16.1 6 Sudeste 22 Este 0 -- -- 76
2018-11-11 19:00:00 17.3 10 Sudeste 22 Sudeste 0 -- -- 71
2018-11-11 18:00:00 18.3 8 Sudeste 21 Sur 0 -- -- 61
2018-11-11 17:00:00 19.7 9 Sur 26 Sur 0 -- -- 55
2018-11-11 16:00:00 20.3 9 Sur 28 Sur 0 -- -- 54
2018-11-11 15:00:00 20.4 18 Sudeste 38 Sudeste 0 -- -- 57
2018-11-11 14:00:00 19.6 15 Sudeste 27 Sudeste 0 -- -- 63
2018-11-11 13:00:00 17.3 10 Sudeste 24 Sudeste 0 -- -- 72
2018-11-11 12:00:00 15.7 8 Sudeste 21 Sudeste 0 -- -- 76
2018-11-11 11:00:00 15 6 Sudeste 24 Sudeste 0 -- -- 77
2018-11-11 10:00:00 13.8 6 Sur 20 Sudeste 0 -- -- 81
2018-11-11 09:00:00 13 7 Sudeste 19 Sudeste 0 -- -- 85
2018-11-11 08:00:00 12.7 9 Sudeste 22 Este 0 -- -- 86
2018-11-11 07:00:00 12.9 9 Sur 21 Sudeste 0 -- -- 85
2018-11-11 06:00:00 13.8 6 Sur 14 Sudeste 0 -- -- 77
2018-11-11 05:00:00 13.7 4 Sudoeste 8 Oeste 0 -- -- 74
2018-11-11 04:00:00 14.5 5 Sudeste 20 Sudoeste 0 -- -- 72
2018-11-11 03:00:00 15.2 8 Oeste 16 Sudoeste 0 -- -- 66
2018-11-11 02:00:00 14.2 6 Noroeste 14 Oeste 0 -- -- 67
2018-11-11 01:00:00 13 4 Sudeste 13 Sudoeste 0 -- -- 73
2018-11-11 00:00:00 15.1 6 Sudoeste 26 Sudoeste 0 -- -- 65
2018-11-10 23:00:00 15.9 9 Sudoeste 28 Oeste 0 -- -- 61
2018-11-10 22:00:00 16.3 11 Sudoeste 27 Sudoeste 0 -- -- 62
2018-11-10 21:00:00 14.7 8 Sur 19 Sur 0 -- -- 75
2018-11-10 20:00:00 15.7 9 Sur 20 Oeste 0 -- -- 71
2018-11-10 19:00:00 14.8 7 Sur 21 Sudoeste 0 -- -- 78
2018-11-10 18:00:00 16.5 10 Sudoeste 32 Sudoeste 0 -- -- 69
2018-11-10 17:00:00 17 10 Sudoeste 33 Oeste 0 -- -- 66
2018-11-10 16:00:00 17.4 15 Sudoeste 35 Sudoeste 0 -- -- 63
2018-11-10 15:00:00 17.4 16 Sudoeste 32 Sudoeste 0 -- -- 63
2018-11-10 14:00:00 18.2 12 Sudoeste 31 Sudoeste 0 -- -- 61
2018-11-10 13:00:00 18.6 8 Sur 32 Sur 0 -- -- 60
2018-11-10 12:00:00 18.6 13 Sudoeste 35 Sudoeste 0 -- -- 58
2018-11-10 11:00:00 15 10 Sudeste 19 Sudeste 0 -- -- 71
2018-11-10 10:00:00 13 4 Nordeste 10 Norte 0 -- -- 77
2018-11-10 09:00:00 11.1 2 Nordeste 13 Nordeste 0 -- -- 82
2018-11-10 08:00:00 10.8 4 Sudeste 15 Sudoeste 0 -- -- 82
2018-11-10 07:00:00 11.1 7 Sudeste 20 Este 0 -- -- 79
2018-11-10 06:00:00 10.9 7 Sur 24 Oeste 0 -- -- 78
2018-11-10 05:00:00 14.2 12 Sudoeste 28 Sudoeste 0 -- -- 67
2018-11-10 04:00:00 13.6 10 Sudoeste 27 Sur 0 -- -- 70
2018-11-10 03:00:00 13.5 12 Sudoeste 28 Sudoeste 0 -- -- 70
2018-11-10 02:00:00 12.5 10 Sudoeste 32 Sudoeste 0 -- -- 73
2018-11-10 01:00:00 13.1 15 Sudoeste 36 Sudoeste 0 -- -- 68
2018-11-10 00:00:00 12.5 12 Sudoeste 28 Sur 0 -- -- 68